createdAt,value
2023-05-16T00:00:01.213Z,7.20
2023-05-16T00:02:32.010Z,7.60
2023-05-16T00:05:04.599Z,10.40
2023-05-16T00:07:35.856Z,7.90
2023-05-16T00:10:07.431Z,7.90
2023-05-16T00:12:39.644Z,8.00
2023-05-16T00:15:14.272Z,7.80
2023-05-16T00:17:46.791Z,8.30
2023-05-16T00:20:19.151Z,7.60
2023-05-16T00:22:49.616Z,7.80
2023-05-16T00:25:20.130Z,8.10
2023-05-16T00:27:50.739Z,8.10
2023-05-16T00:30:22.869Z,8.30
2023-05-16T00:32:57.062Z,7.80
2023-05-16T00:35:27.744Z,13.90
2023-05-16T00:37:58.313Z,9.90
2023-05-16T00:40:29.055Z,8.70
2023-05-16T00:42:59.851Z,8.60
2023-05-16T00:45:30.998Z,9.20
2023-05-16T00:48:01.664Z,10.60
2023-05-16T00:50:34.499Z,9.60
2023-05-16T00:53:05.458Z,8.70
2023-05-16T00:55:36.273Z,9.10
2023-05-16T00:58:42.977Z,9.30
2023-05-16T01:01:14.390Z,8.50
2023-05-16T01:03:47.188Z,8.80
2023-05-16T01:06:17.701Z,9.30
2023-05-16T01:08:48.253Z,8.10
2023-05-16T01:11:28.085Z,8.60
2023-05-16T01:14:10.818Z,8.70
2023-05-16T01:16:48.923Z,8.60
2023-05-16T01:19:44.128Z,8.70
2023-05-16T01:22:47.777Z,9.50
2023-05-16T01:25:33.812Z,9.00
2023-05-16T01:28:05.725Z,8.90
2023-05-16T01:33:08.914Z,9.20
2023-05-16T01:35:45.665Z,9.30
2023-05-16T01:38:21.859Z,9.40
2023-05-16T01:40:59.347Z,9.70
2023-05-16T01:43:38.377Z,9.30
2023-05-16T01:46:21.795Z,9.80
2023-05-16T01:49:17.316Z,12.70
2023-05-16T01:51:55.430Z,13.70
2023-05-16T01:54:31.512Z,12.70
2023-05-16T01:57:05.431Z,12.00
2023-05-16T01:59:37.029Z,10.60
2023-05-16T02:02:07.534Z,10.60
2023-05-16T02:04:38.022Z,9.60
2023-05-16T02:07:08.722Z,12.40
2023-05-16T02:09:39.175Z,29.60
2023-05-16T02:12:11.547Z,10.80
2023-05-16T02:14:42.171Z,9.50
2023-05-16T02:17:12.720Z,8.90
2023-05-16T02:19:43.788Z,9.50
2023-05-16T02:24:45.110Z,8.20
2023-05-16T02:27:15.906Z,8.70
2023-05-16T02:29:46.466Z,8.60
2023-05-16T02:32:17.718Z,19.60
2023-05-16T02:34:48.247Z,11.10
2023-05-16T02:37:18.780Z,9.00
2023-05-16T02:39:49.237Z,9.20
2023-05-16T02:42:19.949Z,9.30
2023-05-16T02:44:50.416Z,9.90
2023-05-16T02:47:21.856Z,8.50
2023-05-16T02:49:53.372Z,8.80
2023-05-16T02:52:24.015Z,9.20
2023-05-16T02:57:28.133Z,8.40
2023-05-16T02:59:59.864Z,8.30
2023-05-16T03:02:30.817Z,7.70
2023-05-16T03:05:01.702Z,8.40
2023-05-16T03:07:32.170Z,8.60
2023-05-16T03:10:02.619Z,8.10
2023-05-16T03:12:33.155Z,8.40
2023-05-16T03:15:04.190Z,8.50
2023-05-16T03:17:34.796Z,8.60
2023-05-16T03:20:09.412Z,22.30
2023-05-16T03:22:40.525Z,14.40
2023-05-16T03:25:11.758Z,8.80
2023-05-16T03:27:44.767Z,8.90
2023-05-16T03:30:17.079Z,15.70
2023-05-16T03:32:48.991Z,10.10
2023-05-16T03:35:19.681Z,9.30
2023-05-16T03:37:50.247Z,8.00
2023-05-16T03:40:23.007Z,7.60
2023-05-16T03:42:53.426Z,7.60
2023-05-16T03:45:24.169Z,7.80
2023-05-16T03:47:54.818Z,8.20
2023-05-16T03:50:25.867Z,8.50
2023-05-16T03:52:56.577Z,7.70
2023-05-16T03:55:27.364Z,8.00
2023-05-16T03:57:58.317Z,7.90
2023-05-16T04:00:29.213Z,8.30
2023-05-16T04:02:59.763Z,8.20
2023-05-16T04:05:30.623Z,7.60
2023-05-16T04:08:01.334Z,8.20
2023-05-16T04:10:32.152Z,7.30
2023-05-16T04:13:02.550Z,7.70
2023-05-16T04:15:33.097Z,7.60
2023-05-16T04:18:05.293Z,7.00
2023-05-16T04:20:36.730Z,7.20
2023-05-16T04:23:07.195Z,7.60
2023-05-16T04:25:37.707Z,7.70
2023-05-16T04:28:08.291Z,7.60
2023-05-16T04:30:39.044Z,7.70
2023-05-16T04:33:09.538Z,7.20
2023-05-16T04:35:41.509Z,7.90
2023-05-16T04:38:12.075Z,7.70
2023-05-16T04:40:43.333Z,8.10
2023-05-16T04:43:13.802Z,7.40
2023-05-16T04:45:44.324Z,8.00
2023-05-16T04:48:15.514Z,7.60
2023-05-16T04:50:46.012Z,6.50
2023-05-16T04:53:16.549Z,6.50
2023-05-16T04:55:47.527Z,6.80
2023-05-16T04:58:18.049Z,7.00
2023-05-16T05:00:48.538Z,7.40
2023-05-16T05:03:19.190Z,7.50
2023-05-16T05:05:49.916Z,7.20
2023-05-16T05:08:20.705Z,7.30
2023-05-16T05:10:51.626Z,7.50
2023-05-16T05:13:22.144Z,7.40
2023-05-16T05:15:53.151Z,7.10
2023-05-16T05:18:23.707Z,7.20
2023-05-16T05:20:54.199Z,6.80
2023-05-16T05:23:24.878Z,6.70
2023-05-16T05:25:55.476Z,6.50
2023-05-16T05:28:25.899Z,7.30
2023-05-16T05:30:56.351Z,6.60
2023-05-16T05:33:29.735Z,7.50
2023-05-16T05:36:03.293Z,6.40
2023-05-16T05:38:34.562Z,6.90
2023-05-16T05:41:05.006Z,7.20
2023-05-16T05:43:35.568Z,7.20
2023-05-16T05:46:06.736Z,8.50
2023-05-16T05:48:37.447Z,7.80
2023-05-16T05:51:08.280Z,7.30
2023-05-16T05:53:38.913Z,6.20
2023-05-16T05:56:09.633Z,6.60
2023-05-16T05:58:41.900Z,7.20
2023-05-16T06:01:13.271Z,7.30
2023-05-16T06:03:44.020Z,7.20
2023-05-16T06:06:15.660Z,7.20
2023-05-16T06:08:46.296Z,7.20
2023-05-16T06:11:16.758Z,8.30
2023-05-16T06:13:47.271Z,7.80
2023-05-16T06:16:17.985Z,8.20
2023-05-16T06:18:48.949Z,7.60
2023-05-16T06:21:19.558Z,7.60
2023-05-16T06:23:50.110Z,7.70
2023-05-16T06:26:22.673Z,8.10
2023-05-16T06:28:53.305Z,8.00
2023-05-16T06:31:23.836Z,8.20
2023-05-16T06:33:54.475Z,7.40
2023-05-16T06:36:25.370Z,7.70
2023-05-16T06:38:55.864Z,8.70
2023-05-16T06:41:26.423Z,8.40
2023-05-16T06:43:56.936Z,8.30
2023-05-16T06:46:38.369Z,7.90
2023-05-16T06:49:09.011Z,7.40
2023-05-16T06:51:40.614Z,7.20
2023-05-16T06:54:11.148Z,7.40
2023-05-16T06:56:42.012Z,8.00
2023-05-16T06:59:12.479Z,8.10
2023-05-16T07:01:43.072Z,7.90
2023-05-16T07:04:13.661Z,8.20
2023-05-16T07:06:44.347Z,7.60
2023-05-16T07:09:14.850Z,8.40
2023-05-16T07:11:45.345Z,8.10
2023-05-16T07:14:15.963Z,9.40
2023-05-16T07:16:46.875Z,10.10
2023-05-16T07:19:17.462Z,9.00
2023-05-16T07:21:47.998Z,8.40
2023-05-16T07:24:18.554Z,8.50
2023-05-16T07:26:49.118Z,7.80
2023-05-16T07:29:19.774Z,7.60
2023-05-16T07:31:50.238Z,7.80
2023-05-16T07:34:20.772Z,8.10
2023-05-16T07:36:54.278Z,7.80
2023-05-16T07:39:24.753Z,8.50
2023-05-16T07:41:55.266Z,8.30
2023-05-16T07:44:25.775Z,8.70
2023-05-16T07:46:56.253Z,7.70
2023-05-16T07:49:27.096Z,8.50
2023-05-16T07:51:57.618Z,8.30
2023-05-16T07:54:28.099Z,7.90
2023-05-16T07:56:58.637Z,7.50
2023-05-16T07:59:29.550Z,8.30
2023-05-16T08:02:00.430Z,8.20
2023-05-16T08:04:31.016Z,9.50
2023-05-16T08:07:01.536Z,9.60
2023-05-16T08:09:32.050Z,8.30
2023-05-16T08:12:03.590Z,9.00
2023-05-16T08:17:03.632Z,8.40
2023-05-16T08:19:34.135Z,8.80
2023-05-16T08:22:07.863Z,8.30
2023-05-16T08:24:38.676Z,9.30
2023-05-16T08:27:09.708Z,9.20
2023-05-16T08:29:40.220Z,9.70
2023-05-16T08:32:11.388Z,8.40
2023-05-16T08:34:42.551Z,8.00
2023-05-16T08:37:13.754Z,8.60
2023-05-16T08:39:45.027Z,8.60
2023-05-16T08:42:15.993Z,8.00
2023-05-16T08:44:46.597Z,8.70
2023-05-16T08:47:22.914Z,8.20
2023-05-16T08:49:57.164Z,7.60
2023-05-16T08:52:33.414Z,8.80
2023-05-16T08:55:10.963Z,7.70
2023-05-16T08:57:43.675Z,8.10
2023-05-16T09:00:16.266Z,7.50
2023-05-16T09:02:47.285Z,8.00
2023-05-16T09:05:19.040Z,7.60
2023-05-16T09:07:49.490Z,8.00
2023-05-16T09:10:20.318Z,8.20
2023-05-16T09:12:51.033Z,8.00
2023-05-16T09:15:22.493Z,7.60
2023-05-16T09:17:53.065Z,7.40
2023-05-16T09:20:23.812Z,7.10
2023-05-16T09:22:55.955Z,8.20
2023-05-16T09:25:30.774Z,7.50
2023-05-16T09:28:03.535Z,8.90
2023-05-16T09:30:37.235Z,8.50
2023-05-16T09:33:09.316Z,8.50
2023-05-16T09:35:45.313Z,9.00
2023-05-16T09:38:19.909Z,8.30
2023-05-16T09:40:51.433Z,7.70
2023-05-16T09:43:26.338Z,8.50
2023-05-16T09:46:00.499Z,8.30
2023-05-16T09:48:31.318Z,7.90
2023-05-16T09:51:04.768Z,8.70
2023-05-16T09:53:36.086Z,7.70
2023-05-16T09:56:08.888Z,7.50
2023-05-16T09:58:40.714Z,7.40
2023-05-16T10:01:12.376Z,8.50
2023-05-16T10:03:44.228Z,8.60
2023-05-16T10:06:16.728Z,7.70
2023-05-16T10:08:48.806Z,7.50
2023-05-16T10:11:21.761Z,8.50
2023-05-16T10:13:54.198Z,7.60
2023-05-16T10:16:25.615Z,7.60
2023-05-16T10:18:57.106Z,7.80
2023-05-16T10:21:29.709Z,7.90
2023-05-16T10:24:04.986Z,8.30
2023-05-16T10:26:36.319Z,8.80
2023-05-16T10:29:08.213Z,9.10
2023-05-16T10:31:39.443Z,9.70
2023-05-16T10:34:10.375Z,10.80
2023-05-16T10:36:41.487Z,10.40
2023-05-16T10:39:13.019Z,10.90
2023-05-16T10:41:44.291Z,10.70
2023-05-16T10:44:18.237Z,10.80
2023-05-16T10:46:49.509Z,10.40
2023-05-16T10:49:27.755Z,11.20
2023-05-16T10:52:13.368Z,11.20
2023-05-16T10:54:45.533Z,11.90
2023-05-16T10:57:22.122Z,10.50
2023-05-16T10:59:53.944Z,11.50
2023-05-16T11:05:02.204Z,11.10
2023-05-16T11:07:36.716Z,11.10
2023-05-16T11:10:09.586Z,11.20
2023-05-16T11:12:43.974Z,11.80
2023-05-16T11:15:23.189Z,13.00
2023-05-16T11:18:04.937Z,12.40
2023-05-16T11:20:37.173Z,12.40
2023-05-16T11:23:27.577Z,12.20
2023-05-16T11:26:00.826Z,12.70
2023-05-16T11:28:31.493Z,12.40
2023-05-16T11:31:05.661Z,14.10
2023-05-16T11:33:37.144Z,13.40
2023-05-16T11:38:44.180Z,12.90
2023-05-16T11:41:17.709Z,11.60
2023-05-16T11:43:48.240Z,11.60
2023-05-16T11:46:18.964Z,12.10
2023-05-16T11:48:49.636Z,12.60
2023-05-16T11:51:23.176Z,12.30
2023-05-16T11:53:53.861Z,12.20
2023-05-16T11:56:24.925Z,12.10
2023-05-16T11:58:56.435Z,12.30
2023-05-16T12:01:28.789Z,13.30
2023-05-16T12:03:59.923Z,13.90
2023-05-16T12:06:31.521Z,13.80
2023-05-16T12:09:04.156Z,12.50
2023-05-16T12:11:34.688Z,13.70
2023-05-16T12:14:05.392Z,12.40
2023-05-16T12:16:37.824Z,12.90
2023-05-16T12:19:09.643Z,13.80
2023-05-16T12:24:13.336Z,12.10
2023-05-16T12:26:44.728Z,13.00
2023-05-16T12:29:15.991Z,12.80
2023-05-16T12:31:47.349Z,12.50
2023-05-16T12:34:23.398Z,12.60
2023-05-16T12:36:57.471Z,13.00
2023-05-16T12:39:27.954Z,12.80
2023-05-16T12:41:58.465Z,12.70
2023-05-16T12:44:32.596Z,13.40
2023-05-16T12:47:03.396Z,13.20
2023-05-16T12:49:35.722Z,13.40
2023-05-16T12:52:08.035Z,13.50
2023-05-16T12:54:38.882Z,13.20
2023-05-16T12:57:10.349Z,13.00
2023-05-16T12:59:40.899Z,14.30
2023-05-16T13:02:13.876Z,13.30
2023-05-16T13:04:44.460Z,14.30
2023-05-16T13:07:15.257Z,15.10
2023-05-16T13:09:45.836Z,14.50
2023-05-16T13:12:16.320Z,13.80
2023-05-16T13:14:46.828Z,13.30
2023-05-16T13:17:17.823Z,14.00
2023-05-16T13:19:49.050Z,15.10
2023-05-16T13:22:19.911Z,14.60
2023-05-16T13:24:50.748Z,14.40
2023-05-16T13:27:21.251Z,14.50
2023-05-16T13:29:51.789Z,14.30
2023-05-16T13:32:22.437Z,14.60
2023-05-16T13:34:53.021Z,15.30
2023-05-16T13:37:24.653Z,15.40
2023-05-16T13:39:56.134Z,15.40
2023-05-16T13:42:26.930Z,15.60
2023-05-16T13:44:57.412Z,15.70
2023-05-16T13:47:28.004Z,15.10
2023-05-16T13:49:58.561Z,15.00
2023-05-16T13:52:29.087Z,14.90
2023-05-16T13:54:59.622Z,16.00
2023-05-16T13:57:30.624Z,17.10
2023-05-16T14:02:43.148Z,15.90
2023-05-16T14:05:14.064Z,16.70
2023-05-16T14:07:46.768Z,16.40
2023-05-16T14:10:17.606Z,15.40
2023-05-16T14:12:49.234Z,14.70
2023-05-16T14:15:19.773Z,17.00
2023-05-16T14:17:50.387Z,18.40
2023-05-16T14:20:21.015Z,16.50
2023-05-16T14:22:51.573Z,16.50
2023-05-16T14:25:22.103Z,17.30
2023-05-16T14:27:52.666Z,18.90
2023-05-16T14:30:23.834Z,18.80
2023-05-16T14:32:54.486Z,19.00
2023-05-16T14:35:25.240Z,19.10
2023-05-16T14:37:55.876Z,18.20
2023-05-16T14:40:26.631Z,18.60
2023-05-16T14:42:57.242Z,16.90
2023-05-16T14:45:28.303Z,17.20
2023-05-16T14:47:59.528Z,18.10
2023-05-16T14:50:30.072Z,19.10
2023-05-16T14:53:01.076Z,18.00
2023-05-16T14:55:31.984Z,17.90
2023-05-16T14:58:02.563Z,17.90
2023-05-16T15:00:33.112Z,17.70
2023-05-16T15:03:03.710Z,16.80
2023-05-16T15:05:34.802Z,17.80
2023-05-16T15:08:06.036Z,16.00
2023-05-16T15:10:36.963Z,17.90
2023-05-16T15:13:07.462Z,16.60
2023-05-16T15:15:38.935Z,17.60
2023-05-16T15:18:11.266Z,17.30
2023-05-16T15:20:42.168Z,16.70
2023-05-16T15:23:13.891Z,17.60
2023-05-16T15:25:44.995Z,16.50
2023-05-16T15:28:15.604Z,15.50
2023-05-16T15:30:46.181Z,15.30
2023-05-16T15:33:16.739Z,15.10
2023-05-16T15:35:48.586Z,15.20
2023-05-16T15:38:19.127Z,15.20
2023-05-16T15:40:52.786Z,16.50
2023-05-16T15:43:31.826Z,15.40
2023-05-16T15:46:02.380Z,16.80
2023-05-16T15:48:33.062Z,16.10
2023-05-16T15:51:03.748Z,16.40
2023-05-16T15:53:34.241Z,15.80
2023-05-16T15:56:04.795Z,16.40
2023-05-16T15:58:35.284Z,15.90
2023-05-16T16:01:06.054Z,15.70
2023-05-16T16:03:36.754Z,15.30
2023-05-16T16:06:07.741Z,14.70
2023-05-16T16:08:38.273Z,15.30
2023-05-16T16:11:09.255Z,16.80
2023-05-16T16:13:39.757Z,15.00
2023-05-16T16:16:10.591Z,16.00
2023-05-16T16:18:41.130Z,16.20
2023-05-16T16:21:12.114Z,16.10
2023-05-16T16:23:43.244Z,16.00
2023-05-16T16:26:13.744Z,16.30
2023-05-16T16:28:44.243Z,16.30
2023-05-16T16:31:15.128Z,16.90
2023-05-16T16:33:49.065Z,15.70
2023-05-16T16:36:19.884Z,15.00
2023-05-16T16:38:50.424Z,16.10
2023-05-16T16:41:20.956Z,15.20
2023-05-16T16:43:53.008Z,15.20
2023-05-16T16:46:23.738Z,15.10
2023-05-16T16:48:54.919Z,15.10
2023-05-16T16:51:25.589Z,15.20
2023-05-16T16:53:58.106Z,14.50
2023-05-16T16:56:30.064Z,14.70
2023-05-16T16:59:00.590Z,13.50
2023-05-16T17:01:32.101Z,13.30
2023-05-16T17:04:03.104Z,13.30
2023-05-16T17:06:33.599Z,13.10
2023-05-16T17:09:06.900Z,13.70
2023-05-16T17:11:40.494Z,13.00
2023-05-16T17:14:11.882Z,12.70
2023-05-16T17:16:42.472Z,12.60
2023-05-16T17:19:13.057Z,12.10
2023-05-16T17:21:44.520Z,12.30
2023-05-16T17:24:15.707Z,11.90
2023-05-16T17:26:46.235Z,12.50
2023-05-16T17:29:16.741Z,12.60
2023-05-16T17:31:47.201Z,12.80
2023-05-16T17:34:17.727Z,12.20
2023-05-16T17:36:48.393Z,12.40
2023-05-16T17:39:20.056Z,11.80
2023-05-16T17:41:50.648Z,11.80
2023-05-16T17:44:22.174Z,12.40
2023-05-16T17:46:53.764Z,12.50
2023-05-16T17:49:25.593Z,12.50
2023-05-16T17:51:58.207Z,12.80
2023-05-16T17:54:31.153Z,12.00
2023-05-16T17:57:02.861Z,13.20
2023-05-16T17:59:33.404Z,13.60
2023-05-16T18:02:04.202Z,13.30
2023-05-16T18:04:34.683Z,12.90
2023-05-16T18:07:07.283Z,12.80
2023-05-16T18:09:37.850Z,12.10
2023-05-16T18:12:09.606Z,12.80
2023-05-16T18:14:40.173Z,13.70
2023-05-16T18:17:10.673Z,13.60
2023-05-16T18:19:41.432Z,13.70
2023-05-16T18:22:13.228Z,13.10
2023-05-16T18:24:44.718Z,12.90
2023-05-16T18:27:16.171Z,13.50
2023-05-16T18:29:46.765Z,12.50
2023-05-16T18:32:17.382Z,14.40
2023-05-16T18:34:48.070Z,13.20
2023-05-16T18:37:18.708Z,13.60
2023-05-16T18:39:49.697Z,14.80
2023-05-16T18:42:20.493Z,14.40
2023-05-16T18:44:51.533Z,14.20
2023-05-16T18:47:22.294Z,14.80
2023-05-16T18:49:53.222Z,13.80
2023-05-16T18:52:23.818Z,13.40
2023-05-16T18:54:54.288Z,13.70
2023-05-16T18:57:24.834Z,14.20
2023-05-16T18:59:56.549Z,15.50
2023-05-16T19:02:37.911Z,15.90
2023-05-16T19:05:14.465Z,15.30
2023-05-16T19:07:45.393Z,15.20
2023-05-16T19:10:15.897Z,15.50
2023-05-16T19:12:49.121Z,15.60
2023-05-16T19:15:19.886Z,14.80
2023-05-16T19:17:50.444Z,14.80
2023-05-16T19:20:21.099Z,14.80
2023-05-16T19:22:51.665Z,15.50
2023-05-16T19:25:22.282Z,15.40
2023-05-16T19:27:52.830Z,16.30
2023-05-16T19:30:24.127Z,17.20
2023-05-16T19:32:54.607Z,16.00
2023-05-16T19:35:25.447Z,15.80
2023-05-16T19:37:56.481Z,15.30
2023-05-16T19:40:27.117Z,14.60
2023-05-16T19:42:57.744Z,15.10
2023-05-16T19:45:28.404Z,15.70
2023-05-16T19:47:59.251Z,15.60
2023-05-16T19:50:30.042Z,16.00
2023-05-16T19:53:00.578Z,16.50
2023-05-16T19:55:31.620Z,16.50
2023-05-16T19:58:02.358Z,14.70
2023-05-16T20:00:33.150Z,15.00
2023-05-16T20:03:03.765Z,14.70
2023-05-16T20:05:34.627Z,15.20
2023-05-16T20:08:05.257Z,14.40
2023-05-16T20:10:36.280Z,15.40
2023-05-16T20:13:06.827Z,16.10
2023-05-16T20:15:37.627Z,14.40
2023-05-16T20:18:09.737Z,15.80
2023-05-16T20:20:40.386Z,14.90
2023-05-16T20:23:10.942Z,14.40
2023-05-16T20:25:41.520Z,16.00
2023-05-16T20:28:12.047Z,12.90
2023-05-16T20:30:42.550Z,12.20
2023-05-16T20:33:13.083Z,13.40
2023-05-16T20:35:43.601Z,12.20
2023-05-16T20:38:14.172Z,10.70
2023-05-16T20:40:44.689Z,11.20
2023-05-16T20:43:15.168Z,10.60
2023-05-16T20:45:46.231Z,10.70
2023-05-16T20:48:16.981Z,10.10
2023-05-16T20:50:47.731Z,10.50
2023-05-16T20:53:18.623Z,10.20
2023-05-16T20:55:49.108Z,9.80
2023-05-16T20:58:20.053Z,10.30
2023-05-16T21:00:50.956Z,9.90
2023-05-16T21:03:22.586Z,10.50
2023-05-16T21:05:54.252Z,9.80
2023-05-16T21:08:24.754Z,10.10
2023-05-16T21:10:55.269Z,12.70
2023-05-16T21:13:25.931Z,10.30
2023-05-16T21:15:56.501Z,9.70
2023-05-16T21:18:27.453Z,9.20
2023-05-16T21:20:58.046Z,9.00
2023-05-16T21:23:28.724Z,10.50
2023-05-16T21:25:59.289Z,9.60
2023-05-16T21:28:31.183Z,9.90
2023-05-16T21:31:03.331Z,10.20
2023-05-16T21:33:33.853Z,10.50
2023-05-16T21:36:04.761Z,10.70
2023-05-16T21:38:35.284Z,10.60
2023-05-16T21:41:05.943Z,10.10
2023-05-16T21:43:36.458Z,9.50
2023-05-16T21:46:07.118Z,9.60
2023-05-16T21:48:38.330Z,9.60
2023-05-16T21:51:09.098Z,10.10
2023-05-16T21:53:39.588Z,10.10
2023-05-16T21:56:10.186Z,11.10
2023-05-16T21:58:42.389Z,9.40
2023-05-16T22:01:16.691Z,9.80
2023-05-16T22:03:47.437Z,9.90
2023-05-16T22:06:18.177Z,8.90
2023-05-16T22:08:48.732Z,9.80
2023-05-16T22:11:19.237Z,9.50
2023-05-16T22:13:50.708Z,9.70
2023-05-16T22:16:21.900Z,10.30
2023-05-16T22:18:52.760Z,10.70
2023-05-16T22:21:23.630Z,10.00
2023-05-16T22:23:54.579Z,10.20
2023-05-16T22:26:25.102Z,9.80
2023-05-16T22:28:55.616Z,9.40
2023-05-16T22:31:26.285Z,9.60
2023-05-16T22:33:56.868Z,9.20
2023-05-16T22:36:27.441Z,9.30
2023-05-16T22:38:58.147Z,9.30
2023-05-16T22:41:29.143Z,10.10
2023-05-16T22:43:59.776Z,9.80
2023-05-16T22:46:30.447Z,9.20
2023-05-16T22:49:00.991Z,9.40
2023-05-16T22:51:31.571Z,8.10
2023-05-16T22:54:02.054Z,9.10
2023-05-16T22:56:32.756Z,9.00
2023-05-16T22:59:03.269Z,9.40
2023-05-16T23:01:33.835Z,9.30
2023-05-16T23:04:04.909Z,9.90
2023-05-16T23:06:35.658Z,9.30
2023-05-16T23:09:06.336Z,9.00
2023-05-16T23:11:36.944Z,8.70
2023-05-16T23:14:07.419Z,9.00
2023-05-16T23:16:37.925Z,8.80
2023-05-16T23:19:09.828Z,9.80
2023-05-16T23:21:40.617Z,10.30
2023-05-16T23:24:11.213Z,10.30
2023-05-16T23:26:41.747Z,10.10
2023-05-16T23:29:12.583Z,10.80
2023-05-16T23:31:43.202Z,9.90
2023-05-16T23:34:13.719Z,10.10
2023-05-16T23:36:44.248Z,9.60
2023-05-16T23:39:14.732Z,9.90
2023-05-16T23:41:45.305Z,9.50
2023-05-16T23:44:15.860Z,9.60
2023-05-16T23:46:46.368Z,9.70
2023-05-16T23:49:17.301Z,9.70
2023-05-16T23:51:57.527Z,9.10
2023-05-16T23:54:28.922Z,8.70
2023-05-16T23:56:59.414Z,8.80
2023-05-16T23:59:29.906Z,7.60
